Time;durP1;ratioP1;P1;durP2;ratioP2;P2;SDS_P1;SDS_P2;PMS_P1;PMS_P2;Temp;Humidity;BMP_temperature;BMP_pressure;BME280_temperature;BME280_humidity;BME280_pressure;Samples;Min_cycle;Max_cycle;Signal;HPM_P1;HPM_P2
2021/10/19 00:01:51;;;;;;;25.80;16.43;;;11.00;99.90;;;;;;5120197;27;20205;-70
2021/10/19 00:04:18;;;;;;;25.10;16.13;;;11.00;99.90;;;;;;5133099;27;20563;-70
2021/10/19 00:06:45;;;;;;;26.57;16.73;;;11.00;99.90;;;;;;5121836;27;20248;-70
2021/10/19 00:09:12;;;;;;;25.70;15.83;;;11.00;99.90;;;;;;5118556;27;20208;-70
2021/10/19 00:11:39;;;;;;;25.90;16.30;;;11.00;99.90;;;;;;5128052;27;20661;-70
2021/10/19 00:14:07;;;;;;;26.67;16.67;;;10.90;99.90;;;;;;5131513;27;20491;-70
2021/10/19 00:16:34;;;;;;;25.47;16.53;;;11.00;99.90;;;;;;5123444;27;20225;-70
2021/10/19 00:19:02;;;;;;;25.70;15.23;;;10.90;99.90;;;;;;5123268;27;20207;-70
2021/10/19 00:21:29;;;;;;;24.97;16.23;;;10.90;99.90;;;;;;5126089;27;20639;-70
2021/10/19 00:23:56;;;;;;;26.40;16.93;;;10.80;99.90;;;;;;5122044;27;20207;-70
2021/10/19 00:26:23;;;;;;;23.90;14.90;;;10.90;99.90;;;;;;5121180;27;20748;-70
2021/10/19 00:28:50;;;;;;;25.50;16.67;;;10.90;99.90;;;;;;5130288;27;20196;-70
2021/10/19 00:31:18;;;;;;;25.73;16.57;;;10.90;99.90;;;;;;5130781;27;20588;-70
2021/10/19 00:33:45;;;;;;;25.67;16.80;;;10.90;99.90;;;;;;5126176;27;20200;-70
2021/10/19 00:36:12;;;;;;;24.60;15.23;;;10.90;99.90;;;;;;5130323;27;20678;-70
2021/10/19 00:38:38;;;;;;;25.10;15.67;;;10.90;99.90;;;;;;5124294;27;20191;-71
2021/10/19 00:41:05;;;;;;;24.83;15.90;;;10.90;99.90;;;;;;5122158;27;20203;-70
2021/10/19 00:43:32;;;;;;;25.77;16.10;;;10.90;99.90;;;;;;5125361;27;20215;-70
2021/10/19 00:45:59;;;;;;;25.10;14.87;;;11.00;99.90;;;;;;5132815;27;20653;-70
2021/10/19 00:48:29;;;;;;;24.40;15.53;;;11.00;99.90;;;;;;5122905;27;20200;-70
2021/10/19 00:50:56;;;;;;;25.57;15.33;;;11.00;99.90;;;;;;5112455;28;20246;-70
2021/10/19 00:53:23;;;;;;;24.90;15.53;;;11.00;99.90;;;;;;5111248;28;20201;-71
2021/10/19 00:55:50;;;;;;;24.47;16.23;;;11.00;99.90;;;;;;5131040;27;20674;-71
2021/10/19 00:58:17;;;;;;;22.83;15.50;;;10.90;99.90;;;;;;5123400;27;20202;-70
2021/10/19 01:00:44;;;;;;;24.93;15.77;;;10.90;99.90;;;;;;5131560;27;20207;-71
2021/10/19 01:03:11;;;;;;;25.90;16.40;;;10.90;99.90;;;;;;5114978;27;20541;-70
2021/10/19 01:05:39;;;;;;;25.43;16.47;;;11.00;99.90;;;;;;5123446;27;20207;-70
2021/10/19 01:08:06;;;;;;;26.27;15.90;;;11.00;99.90;;;;;;5127523;27;20204;-70
2021/10/19 01:10:33;;;;;;;25.17;15.70;;;11.10;99.90;;;;;;5129734;27;20219;-70
2021/10/19 01:13:00;;;;;;;23.97;15.07;;;11.10;99.90;;;;;;5130966;27;20207;-71
2021/10/19 01:15:32;;;;;;;26.90;16.57;;;11.00;99.90;;;;;;5119439;27;20222;-70
2021/10/19 01:18:00;;;;;;;24.80;16.13;;;11.00;99.90;;;;;;5130235;28;20373;-70
2021/10/19 01:20:30;;;;;;;25.10;15.80;;;11.00;99.90;;;;;;5119603;28;20208;-70
2021/10/19 01:22:58;;;;;;;22.67;14.60;;;11.00;99.90;;;;;;5123158;28;20200;-70
2021/10/19 01:25:27;;;;;;;22.40;14.53;;;11.10;99.90;;;;;;5117048;28;20198;-71
2021/10/19 01:27:55;;;;;;;25.10;15.27;;;11.00;99.90;;;;;;5124001;28;20203;-70
2021/10/19 01:30:23;;;;;;;23.43;13.73;;;11.10;99.90;;;;;;5124634;28;20648;-71
2021/10/19 01:32:50;;;;;;;23.83;14.83;;;11.10;99.90;;;;;;5115222;28;20647;-71
2021/10/19 01:35:18;;;;;;;25.33;15.47;;;11.10;99.90;;;;;;5115492;28;20219;-70
2021/10/19 01:37:46;;;;;;;25.00;15.47;;;11.10;99.90;;;;;;5124763;28;20205;-70
2021/10/19 01:40:16;;;;;;;22.70;15.23;;;11.10;99.90;;;;;;5130588;28;20303;-71
2021/10/19 01:42:43;;;;;;;23.03;15.00;;;11.10;99.90;;;;;;5125755;28;20212;-71
2021/10/19 01:45:14;;;;;;;21.93;14.13;;;11.10;99.90;;;;;;5113949;27;20193;-70
2021/10/19 01:47:41;;;;;;;22.73;13.83;;;11.10;99.90;;;;;;5135086;27;20200;-70
2021/10/19 01:50:09;;;;;;;23.03;15.47;;;11.10;99.90;;;;;;5132398;27;20673;-71
2021/10/19 01:52:36;;;;;;;24.17;15.27;;;11.10;99.90;;;;;;5135638;27;20569;-71
2021/10/19 01:55:07;;;;;;;21.30;14.43;;;11.10;99.90;;;;;;5120130;27;20283;-71
2021/10/19 01:57:34;;;;;;;21.43;13.83;;;11.20;99.90;;;;;;5122658;27;20209;-70
2021/10/19 02:00:01;;;;;;;22.73;15.00;;;11.20;99.90;;;;;;5114707;27;20423;-70
2021/10/19 02:02:28;;;;;;;21.43;14.37;;;11.30;99.90;;;;;;5121660;27;20211;-70
2021/10/19 02:04:55;;;;;;;23.47;14.07;;;11.30;99.90;;;;;;5118547;27;20197;-70
2021/10/19 02:07:22;;;;;;;23.33;14.80;;;11.30;99.90;;;;;;5129765;27;20206;-71
2021/10/19 02:09:49;;;;;;;21.90;13.83;;;11.30;99.90;;;;;;5119167;27;20721;-70
2021/10/19 02:12:17;;;;;;;22.23;13.97;;;11.20;99.90;;;;;;5127709;27;20211;-71
2021/10/19 02:14:44;;;;;;;22.80;13.53;;;11.20;99.90;;;;;;5134884;27;20201;-71
2021/10/19 02:17:11;;;;;;;22.00;14.07;;;11.10;99.90;;;;;;5129544;27;20219;-75
2021/10/19 02:19:38;;;;;;;22.90;14.60;;;11.20;99.90;;;;;;5117866;27;20208;-75
2021/10/19 02:22:05;;;;;;;23.43;14.63;;;11.10;99.90;;;;;;5125890;27;20196;-75
2021/10/19 02:24:32;;;;;;;23.20;14.63;;;11.10;99.90;;;;;;5131597;27;20225;-75
2021/10/19 02:26:58;;;;;;;24.13;14.60;;;11.10;99.90;;;;;;5129902;27;20207;-75
2021/10/19 02:29:27;;;;;;;26.47;15.50;;;11.10;99.90;;;;;;5132846;27;20200;-75
2021/10/19 02:31:53;;;;;;;23.50;15.30;;;11.10;99.90;;;;;;5127197;27;20672;-75
2021/10/19 02:34:22;;;;;;;23.33;13.90;;;11.10;99.90;;;;;;5117752;27;20201;-75
2021/10/19 02:36:49;;;;;;;23.90;14.43;;;11.10;99.90;;;;;;5127405;27;20224;-75
2021/10/19 02:39:16;;;;;;;24.23;15.20;;;11.10;99.90;;;;;;5130992;27;20200;-75
2021/10/19 02:41:43;;;;;;;23.30;14.40;;;11.10;99.90;;;;;;5129422;27;20204;-75
2021/10/19 02:44:10;;;;;;;23.00;14.60;;;11.00;99.90;;;;;;5133310;27;20204;-75
2021/10/19 02:46:38;;;;;;;23.70;15.70;;;11.00;99.90;;;;;;5131237;27;20552;-75
2021/10/19 02:49:06;;;;;;;25.67;15.30;;;11.00;99.90;;;;;;5125882;27;20208;-75
2021/10/19 02:51:33;;;;;;;20.80;13.80;;;11.00;99.90;;;;;;5134546;27;20201;-74
2021/10/19 02:54:00;;;;;;;22.83;14.70;;;11.00;99.90;;;;;;5119959;27;20192;-74
2021/10/19 02:56:27;;;;;;;21.93;14.73;;;11.10;99.90;;;;;;5120224;27;20221;-74
2021/10/19 02:58:54;;;;;;;23.20;14.67;;;11.10;99.90;;;;;;5117501;27;20201;-75
2021/10/19 03:01:20;;;;;;;21.60;13.40;;;11.10;99.90;;;;;;5127795;27;20205;-74
2021/10/19 03:03:49;;;;;;;22.73;14.70;;;11.10;99.90;;;;;;5125279;27;20296;-74
2021/10/19 03:06:16;;;;;;;21.13;13.07;;;11.10;99.90;;;;;;5129778;27;20661;-75
2021/10/19 03:08:42;;;;;;;21.20;13.53;;;11.10;99.90;;;;;;5115821;27;20201;-75
2021/10/19 03:11:09;;;;;;;27.17;18.03;;;11.10;99.90;;;;;;5119829;27;20200;-75
2021/10/19 03:13:36;;;;;;;23.40;15.03;;;11.10;99.90;;;;;;5126726;27;20196;-75
2021/10/19 03:16:03;;;;;;;22.23;14.60;;;11.10;99.90;;;;;;5132147;27;20220;-75
2021/10/19 03:18:30;;;;;;;22.23;14.00;;;11.00;99.90;;;;;;5129548;27;20193;-75
2021/10/19 03:20:58;;;;;;;21.70;14.43;;;10.80;99.90;;;;;;5123772;27;20202;-75
2021/10/19 03:23:25;;;;;;;22.07;13.70;;;11.10;99.90;;;;;;5117149;27;20197;-74
2021/10/19 03:25:52;;;;;;;19.50;12.37;;;11.10;99.90;;;;;;5121851;27;20199;-75
2021/10/19 03:28:19;;;;;;;18.03;11.60;;;11.00;99.90;;;;;;5119467;27;20211;-75
2021/10/19 03:30:46;;;;;;;20.17;12.67;;;11.10;99.90;;;;;;5118042;27;20642;-75
2021/10/19 03:33:12;;;;;;;19.50;12.50;;;11.10;99.90;;;;;;5119532;27;20196;-75
2021/10/19 03:35:39;;;;;;;17.63;11.80;;;11.10;99.90;;;;;;5124029;27;20232;-75
2021/10/19 03:38:07;;;;;;;21.30;12.60;;;11.10;99.90;;;;;;5116644;27;20204;-75
2021/10/19 03:40:34;;;;;;;19.50;12.20;;;11.10;99.90;;;;;;5131054;27;20196;-75
2021/10/19 03:43:01;;;;;;;19.40;11.93;;;11.10;99.90;;;;;;5123531;27;20197;-75
2021/10/19 03:45:28;;;;;;;20.87;12.70;;;11.10;99.90;;;;;;5121876;27;20201;-75
2021/10/19 03:47:55;;;;;;;22.73;12.90;;;11.10;99.90;;;;;;5126604;27;20200;-75
2021/10/19 03:50:21;;;;;;;21.87;14.23;;;11.10;99.90;;;;;;5121440;27;20201;-75
2021/10/19 03:52:48;;;;;;;20.73;12.27;;;11.10;99.90;;;;;;5122283;27;20558;-75
2021/10/19 03:55:17;;;;;;;22.97;12.63;;;11.10;99.90;;;;;;5128023;27;20211;-75
2021/10/19 03:57:44;;;;;;;21.90;13.20;;;11.00;99.90;;;;;;5118215;27;20221;-75
2021/10/19 04:00:11;;;;;;;20.37;12.90;;;11.00;99.90;;;;;;5119067;27;20208;-75
2021/10/19 04:02:38;;;;;;;21.03;13.63;;;11.10;99.90;;;;;;5120754;27;20201;-75
2021/10/19 04:05:06;;;;;;;22.23;13.93;;;11.10;99.90;;;;;;5115274;27;20205;-75
2021/10/19 04:07:34;;;;;;;20.20;13.10;;;11.10;99.90;;;;;;5112440;27;20193;-74
2021/10/19 04:10:01;;;;;;;20.20;12.90;;;11.10;99.90;;;;;;5114339;27;20284;-75
2021/10/19 04:12:30;;;;;;;20.93;13.47;;;11.10;99.90;;;;;;5115165;27;20204;-75
2021/10/19 04:14:57;;;;;;;21.77;13.77;;;11.20;99.90;;;;;;5117691;27;20269;-74
2021/10/19 04:17:23;;;;;;;20.93;13.30;;;11.20;99.90;;;;;;5113061;27;20223;-75
2021/10/19 04:19:50;;;;;;;20.70;12.73;;;11.20;99.90;;;;;;5125349;27;20292;-75
2021/10/19 04:22:17;;;;;;;21.93;13.30;;;11.20;99.90;;;;;;5125884;27;20566;-75
2021/10/19 04:24:44;;;;;;;21.67;13.37;;;11.20;99.90;;;;;;5130217;27;20215;-75
2021/10/19 04:27:11;;;;;;;21.70;14.07;;;11.20;99.90;;;;;;5128567;27;20288;-75
2021/10/19 04:29:39;;;;;;;23.30;13.37;;;11.20;99.90;;;;;;5118846;27;20724;-75
2021/10/19 04:32:07;;;;;;;22.53;14.30;;;11.20;99.90;;;;;;5117473;27;20210;-75
2021/10/19 04:34:33;;;;;;;23.37;13.47;;;11.30;99.90;;;;;;5116068;27;20200;-75
2021/10/19 04:37:00;;;;;;;21.00;13.43;;;11.30;99.90;;;;;;5126172;27;20446;-75
2021/10/19 04:39:28;;;;;;;23.53;14.73;;;11.40;99.90;;;;;;5112855;27;20681;-75
2021/10/19 04:41:55;;;;;;;23.50;15.00;;;11.40;99.90;;;;;;5117137;27;20495;-75
2021/10/19 04:44:23;;;;;;;23.53;14.17;;;11.30;99.90;;;;;;5129705;27;20204;-75
2021/10/19 04:46:51;;;;;;;21.10;13.17;;;11.40;99.90;;;;;;5124016;27;20189;-75
2021/10/19 04:49:18;;;;;;;23.73;13.70;;;11.30;99.90;;;;;;5123769;27;20204;-75
2021/10/19 04:51:45;;;;;;;19.43;12.43;;;11.40;99.90;;;;;;5131154;27;20203;-75
2021/10/19 04:54:12;;;;;;;20.40;12.77;;;11.40;99.90;;;;;;5119660;27;20662;-75
2021/10/19 04:56:39;;;;;;;19.87;12.83;;;11.40;99.90;;;;;;5126493;27;20229;-75
2021/10/19 04:59:06;;;;;;;22.43;13.97;;;11.40;99.90;;;;;;5113434;27;20197;-75
2021/10/19 05:01:33;;;;;;;22.63;13.53;;;11.50;99.90;;;;;;5112014;27;20518;-75
2021/10/19 05:04:01;;;;;;;20.43;13.67;;;11.50;99.90;;;;;;5128081;27;20572;-75
2021/10/19 05:06:28;;;;;;;20.87;13.23;;;11.60;99.90;;;;;;5111290;28;20299;-75
2021/10/19 05:08:54;;;;;;;21.47;12.90;;;11.60;99.90;;;;;;5120473;27;20197;-76
2021/10/19 05:11:22;;;;;;;19.13;12.73;;;11.60;99.90;;;;;;5117772;28;20571;-75
2021/10/19 05:13:49;;;;;;;21.87;12.87;;;11.60;99.90;;;;;;5116951;27;20210;-75
2021/10/19 05:16:16;;;;;;;20.50;12.27;;;11.70;99.90;;;;;;5129021;27;20217;-75
2021/10/19 05:18:43;;;;;;;22.00;13.33;;;11.80;99.90;;;;;;5123568;27;20294;-75
2021/10/19 05:21:11;;;;;;;22.73;13.67;;;11.80;99.90;;;;;;5121821;28;20204;-75
2021/10/19 05:23:38;;;;;;;20.73;12.80;;;11.80;99.90;;;;;;5122517;28;20222;-75
2021/10/19 05:26:04;;;;;;;22.20;13.50;;;11.70;99.90;;;;;;5109164;28;20197;-75
2021/10/19 05:28:32;;;;;;;19.03;12.03;;;11.70;99.90;;;;;;5129196;27;20200;-75
2021/10/19 05:30:59;;;;;;;20.37;12.73;;;11.90;99.90;;;;;;5126077;27;20217;-75
2021/10/19 05:33:26;;;;;;;21.50;13.13;;;11.80;99.90;;;;;;5131861;27;20567;-75
2021/10/19 05:35:53;;;;;;;24.03;13.47;;;12.00;99.90;;;;;;5123833;27;20208;-75
2021/10/19 05:38:21;;;;;;;21.77;13.00;;;12.00;99.90;;;;;;5120038;27;20228;-75
2021/10/19 05:40:48;;;;;;;22.37;13.57;;;11.90;99.90;;;;;;5111102;27;20197;-75
2021/10/19 05:43:15;;;;;;;20.50;12.77;;;11.90;99.90;;;;;;5116576;27;20676;-75
2021/10/19 05:45:42;;;;;;;19.20;12.37;;;11.90;99.90;;;;;;5111069;27;20208;-74
2021/10/19 05:48:08;;;;;;;22.40;13.07;;;12.00;99.90;;;;;;5114105;27;20558;-75
2021/10/19 05:50:37;;;;;;;20.63;12.83;;;12.00;99.90;;;;;;5116207;27;20214;-75
2021/10/19 05:53:04;;;;;;;23.10;13.47;;;12.00;99.90;;;;;;5111966;27;20209;-75
2021/10/19 05:55:32;;;;;;;20.37;12.80;;;12.10;99.90;;;;;;5112483;27;20205;-75
2021/10/19 05:57:59;;;;;;;21.20;13.10;;;12.00;99.90;;;;;;5121973;27;20224;-75
2021/10/19 06:00:26;;;;;;;21.93;13.00;;;12.10;99.90;;;;;;5116627;27;20216;-75
2021/10/19 06:02:53;;;;;;;20.90;13.67;;;12.20;99.90;;;;;;5114117;27;22312;-76
2021/10/19 06:05:19;;;;;;;21.20;13.17;;;12.20;99.90;;;;;;5119785;27;20211;-75
2021/10/19 06:07:46;;;;;;;20.73;12.73;;;12.20;99.90;;;;;;5112992;27;20651;-75
2021/10/19 06:10:13;;;;;;;21.20;13.17;;;12.20;99.90;;;;;;5111282;27;20197;-75
2021/10/19 06:12:41;;;;;;;20.37;11.97;;;12.20;99.90;;;;;;5112416;27;20204;-75
2021/10/19 06:15:09;;;;;;;21.23;13.17;;;12.20;99.90;;;;;;5116551;27;20662;-75
2021/10/19 06:17:36;;;;;;;25.07;13.80;;;12.20;99.90;;;;;;5114672;27;20216;-75
2021/10/19 06:20:04;;;;;;;21.53;13.00;;;12.20;99.90;;;;;;5117956;27;20200;-75
2021/10/19 06:22:31;;;;;;;22.33;13.87;;;12.10;99.90;;;;;;5118827;27;20585;-76
2021/10/19 06:24:58;;;;;;;23.77;14.13;;;12.10;99.90;;;;;;5117539;27;20590;-75
2021/10/19 06:27:25;;;;;;;24.83;14.27;;;12.00;99.90;;;;;;5115478;27;20211;-75
2021/10/19 06:29:53;;;;;;;26.57;15.07;;;11.90;99.90;;;;;;5121441;27;20560;-75
2021/10/19 06:32:19;;;;;;;24.07;14.80;;;11.90;99.90;;;;;;5112443;27;20211;-75
2021/10/19 06:34:46;;;;;;;25.63;14.33;;;11.90;99.90;;;;;;5119332;27;20231;-75
2021/10/19 06:37:13;;;;;;;22.47;13.53;;;11.90;99.90;;;;;;5119145;27;20231;-75
2021/10/19 06:39:40;;;;;;;21.53;13.80;;;11.90;99.90;;;;;;5115703;27;20211;-76
2021/10/19 06:42:07;;;;;;;22.73;14.27;;;11.90;99.90;;;;;;5118694;27;20201;-76
2021/10/19 06:44:34;;;;;;;24.53;15.20;;;12.00;99.90;;;;;;5123464;27;20216;-76
2021/10/19 06:47:03;;;;;;;21.30;13.57;;;12.00;99.90;;;;;;5126101;27;20204;-76
2021/10/19 06:49:30;;;;;;;23.10;14.37;;;12.10;99.90;;;;;;5118935;27;20453;-76
2021/10/19 06:51:57;;;;;;;22.87;14.57;;;12.10;99.90;;;;;;5117551;27;20256;-76
2021/10/19 06:54:23;;;;;;;20.70;13.70;;;12.10;99.90;;;;;;5115680;27;20716;-76
2021/10/19 06:56:50;;;;;;;21.67;13.90;;;12.10;99.90;;;;;;5119765;27;20220;-76
2021/10/19 06:59:18;;;;;;;21.00;13.83;;;12.10;99.90;;;;;;5116400;27;20245;-76
2021/10/19 07:01:45;;;;;;;21.07;13.20;;;12.10;99.90;;;;;;5115678;27;20288;-76
2021/10/19 07:04:13;;;;;;;22.77;14.07;;;12.20;99.90;;;;;;5114625;27;20258;-75
2021/10/19 07:06:40;;;;;;;22.67;13.90;;;12.20;99.90;;;;;;5116560;27;20208;-74
2021/10/19 07:09:07;;;;;;;22.50;14.10;;;12.20;99.90;;;;;;5112025;27;20207;-75
2021/10/19 07:11:33;;;;;;;21.27;13.53;;;12.20;99.90;;;;;;5116240;27;20204;-75
2021/10/19 07:14:01;;;;;;;20.53;12.93;;;12.30;99.90;;;;;;5115440;27;20222;-74
2021/10/19 07:16:27;;;;;;;21.73;13.30;;;12.30;99.90;;;;;;5116066;27;20205;-75
2021/10/19 07:18:54;;;;;;;19.43;12.90;;;12.30;99.90;;;;;;5117399;27;20236;-74
2021/10/19 07:21:24;;;;;;;21.23;13.70;;;12.40;99.90;;;;;;5118290;27;20211;-75
2021/10/19 07:23:51;;;;;;;23.67;14.57;;;12.40;99.90;;;;;;5112891;27;20257;-76
2021/10/19 07:26:17;;;;;;;24.20;13.27;;;12.50;99.90;;;;;;5118417;27;20204;-75
2021/10/19 07:28:44;;;;;;;20.93;13.23;;;12.50;99.90;;;;;;5117694;27;20197;-75
2021/10/19 07:31:11;;;;;;;21.63;13.50;;;12.50;99.90;;;;;;5116309;27;20197;-75
2021/10/19 07:33:38;;;;;;;22.53;13.23;;;12.60;99.90;;;;;;5118014;27;20570;-75
2021/10/19 07:36:05;;;;;;;22.17;13.23;;;12.60;99.90;;;;;;5117679;27;20204;-75
2021/10/19 07:38:33;;;;;;;22.17;12.60;;;12.60;99.90;;;;;;5119881;27;20586;-76
2021/10/19 07:41:00;;;;;;;22.47;14.30;;;12.80;99.90;;;;;;5109538;27;20284;-75
2021/10/19 07:43:27;;;;;;;23.23;13.40;;;12.70;99.90;;;;;;5114708;27;20212;-76
2021/10/19 07:45:54;;;;;;;19.37;12.47;;;12.80;99.90;;;;;;5117232;27;20213;-75
2021/10/19 07:48:21;;;;;;;20.47;12.00;;;12.80;99.90;;;;;;5116074;27;20569;-75
2021/10/19 07:50:48;;;;;;;21.93;13.17;;;12.90;99.90;;;;;;5112855;27;20216;-76
2021/10/19 07:53:16;;;;;;;21.23;13.17;;;12.90;99.90;;;;;;5120819;27;20205;-75
2021/10/19 07:55:45;;;;;;;21.73;12.00;;;12.90;99.90;;;;;;5114238;27;20205;-76
2021/10/19 07:58:12;;;;;;;20.67;13.63;;;13.00;99.90;;;;;;5116469;27;20228;-76
2021/10/19 08:00:39;;;;;;;18.97;11.97;;;12.90;99.90;;;;;;5118919;27;20215;-76
2021/10/19 08:03:06;;;;;;;21.33;13.10;;;13.00;99.90;;;;;;5118837;27;20205;-76
2021/10/19 08:05:34;;;;;;;18.40;11.90;;;13.00;99.90;;;;;;5112559;27;20227;-75
2021/10/19 08:08:08;;;;;;;21.30;12.80;;;13.10;99.90;;;;;;5118308;27;20204;-76
2021/10/19 08:10:36;;;;;;;20.30;12.57;;;13.10;99.90;;;;;;5113000;27;20211;-75
2021/10/19 08:13:06;;;;;;;19.53;12.10;;;13.00;99.90;;;;;;5112103;27;20415;-76
2021/10/19 08:15:34;;;;;;;19.90;11.80;;;13.10;99.90;;;;;;5111146;27;20681;-76
2021/10/19 08:18:01;;;;;;;20.83;12.87;;;13.10;99.90;;;;;;5112973;27;20234;-76
2021/10/19 08:20:28;;;;;;;21.33;13.10;;;13.10;99.90;;;;;;5115355;27;20579;-76
2021/10/19 08:22:55;;;;;;;19.47;12.67;;;13.10;99.90;;;;;;5118138;27;20570;-76
2021/10/19 08:25:22;;;;;;;21.23;12.63;;;13.10;99.90;;;;;;5118291;27;20208;-75
2021/10/19 08:27:49;;;;;;;21.07;12.73;;;13.10;99.90;;;;;;5113046;27;21676;-76
2021/10/19 08:30:19;;;;;;;22.07;12.20;;;13.00;99.90;;;;;;5114463;27;20678;-75
2021/10/19 08:32:47;;;;;;;19.30;11.60;;;13.10;99.90;;;;;;5118131;27;20213;-75
2021/10/19 08:35:14;;;;;;;19.03;11.97;;;13.00;99.90;;;;;;5113195;27;20205;-76
2021/10/19 08:37:42;;;;;;;18.20;11.87;;;13.00;99.90;;;;;;5118223;27;20224;-75
2021/10/19 08:40:10;;;;;;;18.03;11.93;;;13.10;99.90;;;;;;5112368;27;20196;-76
2021/10/19 08:42:42;;;;;;;21.83;12.83;;;13.20;99.90;;;;;;5118408;27;20212;-76
2021/10/19 08:45:09;;;;;;;19.40;12.50;;;13.30;99.90;;;;;;5119409;27;20208;-76
2021/10/19 08:47:38;;;;;;;20.13;12.43;;;13.40;99.90;;;;;;5116623;27;20564;-76
2021/10/19 08:50:06;;;;;;;19.73;12.20;;;13.30;99.90;;;;;;5121943;27;20287;-76
2021/10/19 08:52:33;;;;;;;19.17;11.47;;;13.40;99.90;;;;;;5116657;27;20214;-76
2021/10/19 08:54:59;;;;;;;21.17;12.67;;;13.40;99.90;;;;;;5116417;27;20211;-75
2021/10/19 08:57:26;;;;;;;19.13;11.77;;;13.40;99.90;;;;;;5116522;27;20749;-75
2021/10/19 08:59:56;;;;;;;19.63;12.10;;;13.50;99.90;;;;;;5118072;27;20479;-76
2021/10/19 09:02:35;;;;;;;18.90;11.83;;;13.50;99.90;;;;;;5116466;27;20200;-75
2021/10/19 09:05:04;;;;;;;18.97;11.83;;;13.50;99.90;;;;;;5109332;27;20200;-75
2021/10/19 09:07:31;;;;;;;19.93;11.70;;;13.60;99.90;;;;;;5118260;27;20205;-75
2021/10/19 09:09:57;;;;;;;18.90;12.17;;;13.60;99.90;;;;;;5112344;27;20239;-76
2021/10/19 09:12:25;;;;;;;17.13;10.77;;;13.70;99.90;;;;;;5114074;27;20569;-75
2021/10/19 09:14:52;;;;;;;17.53;11.13;;;13.70;99.90;;;;;;5123103;27;20654;-75
2021/10/19 09:17:20;;;;;;;21.43;11.27;;;13.80;99.90;;;;;;5113835;27;20211;-75
2021/10/19 09:19:47;;;;;;;18.33;10.67;;;13.80;99.90;;;;;;5112509;27;20212;-75
2021/10/19 09:22:18;;;;;;;21.13;11.00;;;13.90;99.90;;;;;;5118479;27;20208;-75
2021/10/19 09:24:45;;;;;;;19.40;11.60;;;14.00;99.90;;;;;;5114560;27;20208;-75
2021/10/19 09:27:14;;;;;;;16.30;10.93;;;14.10;99.90;;;;;;5113356;27;20219;-75
2021/10/19 09:29:43;;;;;;;15.90;10.47;;;14.20;99.90;;;;;;5114778;27;20233;-75
2021/10/19 09:32:12;;;;;;;15.83;9.60;;;14.30;99.90;;;;;;5116126;27;20222;-76
2021/10/19 09:34:40;;;;;;;16.33;10.23;;;14.40;99.90;;;;;;5115015;27;20556;-75
2021/10/19 09:37:08;;;;;;;15.27;10.27;;;14.40;99.90;;;;;;5111838;27;20204;-75
2021/10/19 09:39:39;;;;;;;17.13;10.53;;;14.30;99.90;;;;;;5116242;27;20231;-75
2021/10/19 09:42:09;;;;;;;14.50;9.87;;;14.50;99.90;;;;;;5109772;27;20208;-75
2021/10/19 09:44:37;;;;;;;17.47;9.97;;;14.60;99.90;;;;;;5121111;27;20201;-75
2021/10/19 09:47:05;;;;;;;16.73;10.13;;;14.70;99.90;;;;;;5114175;27;20209;-76
2021/10/19 09:49:32;;;;;;;14.50;9.40;;;14.80;99.90;;;;;;5114429;27;20202;-75
2021/10/19 09:52:01;;;;;;;13.77;9.00;;;15.00;99.90;;;;;;5115646;27;20571;-75
2021/10/19 09:54:31;;;;;;;13.97;9.13;;;15.10;99.90;;;;;;5114971;27;20287;-76
2021/10/19 09:57:00;;;;;;;14.53;9.53;;;15.20;99.90;;;;;;5117688;27;20499;-76
2021/10/19 09:59:27;;;;;;;14.05;9.40;;;15.30;99.90;;;;;;5120135;27;20689;-75
2021/10/19 10:01:54;;;;;;;15.07;8.97;;;15.20;99.90;;;;;;5118308;27;20196;-76
2021/10/19 10:04:21;;;;;;;12.37;8.37;;;15.10;99.90;;;;;;5113411;27;20197;-76
2021/10/19 10:06:49;;;;;;;12.97;8.43;;;15.00;99.90;;;;;;5110853;27;20200;-75
2021/10/19 10:09:17;;;;;;;13.13;8.57;;;14.80;99.90;;;;;;5116365;27;20204;-75
2021/10/19 10:11:44;;;;;;;12.73;8.67;;;15.00;99.90;;;;;;5125333;27;20204;-75
2021/10/19 10:14:14;;;;;;;14.23;8.57;;;14.90;99.90;;;;;;5115193;27;20216;-75
2021/10/19 10:16:47;;;;;;;13.50;8.13;;;15.00;99.90;;;;;;5116114;27;20669;-76
2021/10/19 10:19:16;;;;;;;13.73;9.10;;;15.10;99.90;;;;;;5117731;27;20556;-75
2021/10/19 10:21:47;;;;;;;15.20;8.33;;;15.20;99.90;;;;;;5120381;27;20698;-75
2021/10/19 10:24:15;;;;;;;11.33;7.43;;;15.20;99.90;;;;;;5115250;27;20776;-75
2021/10/19 10:26:42;;;;;;;12.70;8.40;;;15.20;99.90;;;;;;5118312;27;20262;-76
2021/10/19 10:29:12;;;;;;;10.90;7.37;;;15.20;99.90;;;;;;5118006;27;20223;-76
2021/10/19 10:31:48;;;;;;;11.90;7.90;;;15.10;99.90;;;;;;5125252;27;20208;-76
2021/10/19 10:34:15;;;;;;;12.03;7.60;;;15.10;99.90;;;;;;5116468;27;20208;-75
2021/10/19 10:36:45;;;;;;;11.27;7.67;;;15.00;99.90;;;;;;5113410;27;20213;-76
2021/10/19 10:39:13;;;;;;;14.23;7.87;;;15.00;99.90;;;;;;5117229;27;20228;-76
2021/10/19 10:41:41;;;;;;;11.70;7.73;;;15.00;99.90;;;;;;5121591;27;20200;-76
2021/10/19 10:44:10;;;;;;;11.67;7.60;;;15.00;99.90;;;;;;5112415;27;20201;-76
2021/10/19 10:46:41;;;;;;;12.20;7.30;;;15.10;99.90;;;;;;5115703;27;20250;-76
2021/10/19 10:49:11;;;;;;;11.77;7.93;;;15.20;99.90;;;;;;5117471;27;20204;-75
2021/10/19 10:51:41;;;;;;;11.03;7.10;;;15.30;99.90;;;;;;5118355;27;20564;-75
2021/10/19 10:54:08;;;;;;;11.53;7.13;;;15.30;99.90;;;;;;5122978;27;20304;-76
2021/10/19 10:56:43;;;;;;;9.70;6.83;;;15.30;99.90;;;;;;5115165;27;20205;-75
2021/10/19 10:59:10;;;;;;;11.13;7.10;;;15.70;99.90;;;;;;5116251;27;20589;-76
2021/10/19 11:01:38;;;;;;;9.98;6.47;;;15.80;99.90;;;;;;5117006;27;20207;-76
2021/10/19 11:04:07;;;;;;;9.83;6.80;;;16.00;99.90;;;;;;5111558;27;20215;-75
2021/10/19 11:06:35;;;;;;;10.95;6.93;;;15.90;99.90;;;;;;5111859;27;20281;-75
2021/10/19 11:09:06;;;;;;;9.30;6.78;;;15.60;99.90;;;;;;5116516;27;20202;-75
2021/10/19 11:11:35;;;;;;;10.45;6.03;;;15.60;99.90;;;;;;5118527;27;20204;-76
2021/10/19 11:14:04;;;;;;;8.43;6.13;;;15.70;99.90;;;;;;5113607;27;20262;-76
2021/10/19 11:16:33;;;;;;;12.25;6.90;;;15.80;99.90;;;;;;5123011;27;20465;-76
2021/10/19 11:19:04;;;;;;;9.77;6.15;;;15.70;99.90;;;;;;5119135;27;20270;-76
2021/10/19 11:21:31;;;;;;;7.68;5.82;;;15.70;99.90;;;;;;5118422;27;20193;-75
2021/10/19 11:23:58;;;;;;;6.63;4.87;;;15.70;99.90;;;;;;5115931;27;20231;-75
2021/10/19 11:26:26;;;;;;;7.28;5.85;;;15.50;99.90;;;;;;5124627;27;20207;-75
2021/10/19 11:28:56;;;;;;;6.43;5.22;;;15.60;99.90;;;;;;5136845;27;20195;-75
2021/10/19 11:31:23;;;;;;;7.70;5.73;;;15.60;99.90;;;;;;5121884;27;20209;-75
2021/10/19 11:33:50;;;;;;;6.90;5.10;;;15.60;99.90;;;;;;5114124;27;20201;-75
2021/10/19 11:36:19;;;;;;;7.13;4.93;;;15.50;99.90;;;;;;5114442;27;20792;-75
2021/10/19 11:38:48;;;;;;;7.05;5.07;;;15.60;99.90;;;;;;5113048;27;20558;-75
2021/10/19 11:41:16;;;;;;;6.63;4.85;;;15.60;99.90;;;;;;5113792;27;20559;-75
2021/10/19 11:43:44;;;;;;;7.87;4.93;;;15.40;99.90;;;;;;5119253;27;20208;-75
2021/10/19 11:46:15;;;;;;;9.17;6.50;;;15.40;99.90;;;;;;5110631;27;20207;-75
2021/10/19 11:48:43;;;;;;;9.17;6.20;;;15.30;99.90;;;;;;5116811;27;20200;-76
2021/10/19 11:51:13;;;;;;;7.57;4.60;;;15.30;99.90;;;;;;5112838;27;20203;-75
2021/10/19 11:53:43;;;;;;;4.40;4.00;;;15.20;99.90;;;;;;5120779;27;20208;-75
2021/10/19 11:56:11;;;;;;;6.57;4.40;;;15.10;99.90;;;;;;5116285;27;20224;-76
2021/10/19 11:58:49;;;;;;;5.20;4.33;;;15.10;99.90;;;;;;5122357;27;20220;-76
2021/10/19 12:01:16;;;;;;;5.93;4.80;;;15.00;99.90;;;;;;5111984;27;20577;-75
2021/10/19 12:03:43;;;;;;;6.00;4.30;;;15.00;99.90;;;;;;5120514;27;20209;-75
2021/10/19 12:06:11;;;;;;;5.53;4.00;;;15.00;99.90;;;;;;5118769;27;20200;-75
2021/10/19 12:08:44;;;;;;;6.63;4.53;;;15.00;99.90;;;;;;5112151;27;20216;-75
2021/10/19 12:11:11;;;;;;;4.80;4.30;;;14.90;99.90;;;;;;5120100;27;20518;-76
2021/10/19 12:13:39;;;;;;;5.63;4.27;;;15.00;99.90;;;;;;5114208;27;20614;-76
2021/10/19 12:16:07;;;;;;;7.00;4.40;;;15.00;99.90;;;;;;5115684;27;20212;-75
2021/10/19 12:18:45;;;;;;;5.77;3.73;;;15.00;99.90;;;;;;5112899;27;20217;-76
2021/10/19 12:21:15;;;;;;;5.20;3.90;;;15.10;99.90;;;;;;5117951;27;20212;-76
2021/10/19 12:23:50;;;;;;;5.63;3.77;;;15.10;99.90;;;;;;5121358;27;20208;-75
2021/10/19 12:26:20;;;;;;;5.73;3.77;;;15.00;99.90;;;;;;5121088;27;20204;-76
2021/10/19 12:28:51;;;;;;;4.10;3.70;;;15.00;99.90;;;;;;5110483;27;20551;-76
2021/10/19 12:31:19;;;;;;;5.50;3.93;;;15.00;99.90;;;;;;5115359;27;20224;-76
2021/10/19 12:33:53;;;;;;;4.00;3.60;;;15.00;99.90;;;;;;5112186;27;20257;-75